sensor_id;sensor_type;location;lat;lon;timestamp;P1;durP1;ratioP1;P2;durP2;ratioP2
61756;SDS011;57225;61.460;24.060;2023-09-30T00:01:43;14.52;;;3.45;;
61756;SDS011;57225;61.460;24.060;2023-09-30T00:04:28;20.95;;;3.63;;
61756;SDS011;57225;61.460;24.060;2023-09-30T00:07:13;21.95;;;3.60;;
61756;SDS011;57225;61.460;24.060;2023-09-30T00:10:01;17.80;;;3.53;;
61756;SDS011;57225;61.460;24.060;2023-09-30T00:12:47;16.50;;;3.45;;
61756;SDS011;57225;61.460;24.060;2023-09-30T00:15:33;19.83;;;4.05;;
61756;SDS011;57225;61.460;24.060;2023-09-30T00:18:18;14.90;;;3.80;;
61756;SDS011;57225;61.460;24.060;2023-09-30T00:21:05;19.42;;;3.97;;
61756;SDS011;57225;61.460;24.060;2023-09-30T00:23:50;18.23;;;4.25;;
61756;SDS011;57225;61.460;24.060;2023-09-30T00:26:34;18.52;;;4.00;;
61756;SDS011;57225;61.460;24.060;2023-09-30T00:32:26;19.33;;;3.88;;
61756;SDS011;57225;61.460;24.060;2023-09-30T00:35:10;18.08;;;4.97;;
61756;SDS011;57225;61.460;24.060;2023-09-30T00:37:55;21.92;;;5.32;;
61756;SDS011;57225;61.460;24.060;2023-09-30T00:40:48;15.38;;;4.30;;
61756;SDS011;57225;61.460;24.060;2023-09-30T00:43:33;23.70;;;4.72;;
61756;SDS011;57225;61.460;24.060;2023-09-30T00:46:31;16.17;;;4.47;;
61756;SDS011;57225;61.460;24.060;2023-09-30T00:49:16;18.73;;;4.15;;
61756;SDS011;57225;61.460;24.060;2023-09-30T00:52:02;20.95;;;4.55;;
61756;SDS011;57225;61.460;24.060;2023-09-30T00:54:47;24.27;;;4.78;;
61756;SDS011;57225;61.460;24.060;2023-09-30T00:57:34;15.23;;;4.50;;
61756;SDS011;57225;61.460;24.060;2023-09-30T01:00:19;21.60;;;4.75;;
61756;SDS011;57225;61.460;24.060;2023-09-30T01:03:04;23.05;;;4.28;;
61756;SDS011;57225;61.460;24.060;2023-09-30T01:05:50;17.27;;;4.22;;
61756;SDS011;57225;61.460;24.060;2023-09-30T01:08:36;20.05;;;4.07;;
61756;SDS011;57225;61.460;24.060;2023-09-30T01:11:22;22.45;;;4.78;;
61756;SDS011;57225;61.460;24.060;2023-09-30T01:14:26;18.30;;;5.28;;
61756;SDS011;57225;61.460;24.060;2023-09-30T01:17:14;15.88;;;4.38;;
61756;SDS011;57225;61.460;24.060;2023-09-30T01:19:59;20.38;;;4.38;;
61756;SDS011;57225;61.460;24.060;2023-09-30T01:22:44;22.85;;;4.93;;
61756;SDS011;57225;61.460;24.060;2023-09-30T01:25:30;22.58;;;4.28;;
61756;SDS011;57225;61.460;24.060;2023-09-30T01:28:16;20.40;;;5.15;;
61756;SDS011;57225;61.460;24.060;2023-09-30T01:31:02;20.67;;;5.00;;
61756;SDS011;57225;61.460;24.060;2023-09-30T01:33:48;20.75;;;5.30;;
61756;SDS011;57225;61.460;24.060;2023-09-30T01:36:37;26.30;;;4.75;;
61756;SDS011;57225;61.460;24.060;2023-09-30T01:39:22;28.33;;;5.57;;
61756;SDS011;57225;61.460;24.060;2023-09-30T01:42:08;26.58;;;5.55;;
61756;SDS011;57225;61.460;24.060;2023-09-30T01:44:52;21.83;;;5.38;;
61756;SDS011;57225;61.460;24.060;2023-09-30T01:47:38;23.60;;;5.28;;
61756;SDS011;57225;61.460;24.060;2023-09-30T01:50:22;27.10;;;5.78;;
61756;SDS011;57225;61.460;24.060;2023-09-30T01:53:07;22.65;;;5.78;;
61756;SDS011;57225;61.460;24.060;2023-09-30T01:55:52;25.98;;;6.55;;
61756;SDS011;57225;61.460;24.060;2023-09-30T01:58:37;23.08;;;5.43;;
61756;SDS011;57225;61.460;24.060;2023-09-30T02:01:28;29.38;;;6.35;;
61756;SDS011;57225;61.460;24.060;2023-09-30T02:04:12;17.77;;;6.05;;
61756;SDS011;57225;61.460;24.060;2023-09-30T02:07:01;20.63;;;5.35;;
61756;SDS011;57225;61.460;24.060;2023-09-30T02:09:45;18.90;;;5.15;;
61756;SDS011;57225;61.460;24.060;2023-09-30T02:12:30;25.38;;;6.53;;
61756;SDS011;57225;61.460;24.060;2023-09-30T02:15:14;19.52;;;6.25;;
61756;SDS011;57225;61.460;24.060;2023-09-30T02:17:59;27.30;;;5.88;;
61756;SDS011;57225;61.460;24.060;2023-09-30T02:20:44;26.92;;;5.75;;
61756;SDS011;57225;61.460;24.060;2023-09-30T02:23:28;29.88;;;6.82;;
61756;SDS011;57225;61.460;24.060;2023-09-30T02:26:16;25.90;;;6.43;;
61756;SDS011;57225;61.460;24.060;2023-09-30T02:29:01;32.63;;;6.93;;
61756;SDS011;57225;61.460;24.060;2023-09-30T02:31:45;27.75;;;6.82;;
61756;SDS011;57225;61.460;24.060;2023-09-30T02:34:31;34.20;;;7.25;;
61756;SDS011;57225;61.460;24.060;2023-09-30T02:37:16;35.05;;;7.65;;
61756;SDS011;57225;61.460;24.060;2023-09-30T02:40:05;36.90;;;8.30;;
61756;SDS011;57225;61.460;24.060;2023-09-30T02:42:53;31.80;;;7.65;;
61756;SDS011;57225;61.460;24.060;2023-09-30T02:45:37;34.80;;;8.55;;
61756;SDS011;57225;61.460;24.060;2023-09-30T02:48:22;33.38;;;7.82;;
61756;SDS011;57225;61.460;24.060;2023-09-30T02:51:12;33.30;;;8.10;;
61756;SDS011;57225;61.460;24.060;2023-09-30T02:54:00;22.45;;;7.55;;
61756;SDS011;57225;61.460;24.060;2023-09-30T02:56:44;24.48;;;7.93;;
61756;SDS011;57225;61.460;24.060;2023-09-30T02:59:30;30.67;;;8.43;;
61756;SDS011;57225;61.460;24.060;2023-09-30T03:02:14;23.40;;;7.00;;
61756;SDS011;57225;61.460;24.060;2023-09-30T03:04:59;24.17;;;6.85;;
61756;SDS011;57225;61.460;24.060;2023-09-30T03:07:47;24.80;;;7.78;;
61756;SDS011;57225;61.460;24.060;2023-09-30T03:10:32;27.92;;;8.05;;
61756;SDS011;57225;61.460;24.060;2023-09-30T03:13:16;22.60;;;7.72;;
61756;SDS011;57225;61.460;24.060;2023-09-30T03:16:02;21.23;;;7.53;;
61756;SDS011;57225;61.460;24.060;2023-09-30T03:18:47;21.85;;;7.72;;
61756;SDS011;57225;61.460;24.060;2023-09-30T03:21:32;16.25;;;7.32;;
61756;SDS011;57225;61.460;24.060;2023-09-30T03:24:17;19.98;;;7.05;;
61756;SDS011;57225;61.460;24.060;2023-09-30T03:27:04;17.92;;;7.18;;
61756;SDS011;57225;61.460;24.060;2023-09-30T03:29:49;16.35;;;6.63;;
61756;SDS011;57225;61.460;24.060;2023-09-30T03:32:34;18.73;;;6.95;;
61756;SDS011;57225;61.460;24.060;2023-09-30T03:35:22;12.50;;;6.28;;
61756;SDS011;57225;61.460;24.060;2023-09-30T03:38:07;22.52;;;8.00;;
61756;SDS011;57225;61.460;24.060;2023-09-30T03:40:53;20.73;;;7.80;;
61756;SDS011;57225;61.460;24.060;2023-09-30T03:43:42;28.25;;;8.20;;
61756;SDS011;57225;61.460;24.060;2023-09-30T03:46:26;20.52;;;8.52;;
61756;SDS011;57225;61.460;24.060;2023-09-30T03:49:11;23.67;;;9.38;;
61756;SDS011;57225;61.460;24.060;2023-09-30T03:51:55;27.30;;;10.68;;
61756;SDS011;57225;61.460;24.060;2023-09-30T03:54:40;23.50;;;9.40;;
61756;SDS011;57225;61.460;24.060;2023-09-30T03:57:25;25.67;;;10.27;;
61756;SDS011;57225;61.460;24.060;2023-09-30T04:00:11;23.48;;;10.00;;
61756;SDS011;57225;61.460;24.060;2023-09-30T04:03:06;19.63;;;10.55;;
61756;SDS011;57225;61.460;24.060;2023-09-30T04:06:10;18.33;;;8.63;;
61756;SDS011;57225;61.460;24.060;2023-09-30T04:08:56;19.90;;;10.07;;
61756;SDS011;57225;61.460;24.060;2023-09-30T04:11:42;20.23;;;10.15;;
61756;SDS011;57225;61.460;24.060;2023-09-30T04:14:27;19.85;;;9.25;;
61756;SDS011;57225;61.460;24.060;2023-09-30T04:17:12;23.65;;;10.80;;
61756;SDS011;57225;61.460;24.060;2023-09-30T04:19:57;25.40;;;10.77;;
61756;SDS011;57225;61.460;24.060;2023-09-30T04:22:42;19.52;;;10.02;;
61756;SDS011;57225;61.460;24.060;2023-09-30T04:25:32;19.88;;;12.07;;
61756;SDS011;57225;61.460;24.060;2023-09-30T04:28:16;25.75;;;12.55;;
61756;SDS011;57225;61.460;24.060;2023-09-30T04:31:04;22.42;;;11.52;;
61756;SDS011;57225;61.460;24.060;2023-09-30T04:33:51;25.52;;;12.38;;
61756;SDS011;57225;61.460;24.060;2023-09-30T04:36:36;22.60;;;12.40;;
61756;SDS011;57225;61.460;24.060;2023-09-30T04:39:21;31.98;;;13.40;;
61756;SDS011;57225;61.460;24.060;2023-09-30T04:42:05;31.88;;;15.38;;
61756;SDS011;57225;61.460;24.060;2023-09-30T04:44:54;28.73;;;14.35;;
61756;SDS011;57225;61.460;24.060;2023-09-30T04:47:43;25.55;;;14.38;;
61756;SDS011;57225;61.460;24.060;2023-09-30T04:50:28;28.08;;;13.02;;
61756;SDS011;57225;61.460;24.060;2023-09-30T04:53:15;27.52;;;13.75;;
61756;SDS011;57225;61.460;24.060;2023-09-30T04:56:01;24.83;;;13.48;;
61756;SDS011;57225;61.460;24.060;2023-09-30T04:58:47;29.00;;;13.82;;
61756;SDS011;57225;61.460;24.060;2023-09-30T05:01:32;25.38;;;13.10;;
61756;SDS011;57225;61.460;24.060;2023-09-30T05:04:16;21.42;;;12.65;;
61756;SDS011;57225;61.460;24.060;2023-09-30T05:07:01;33.47;;;14.80;;
61756;SDS011;57225;61.460;24.060;2023-09-30T05:09:45;25.42;;;14.13;;
61756;SDS011;57225;61.460;24.060;2023-09-30T05:12:30;26.75;;;14.45;;
61756;SDS011;57225;61.460;24.060;2023-09-30T05:15:18;28.77;;;13.82;;
61756;SDS011;57225;61.460;24.060;2023-09-30T05:18:03;24.17;;;13.05;;
61756;SDS011;57225;61.460;24.060;2023-09-30T05:20:49;25.13;;;13.82;;
61756;SDS011;57225;61.460;24.060;2023-09-30T05:23:33;22.63;;;12.20;;
61756;SDS011;57225;61.460;24.060;2023-09-30T05:26:19;20.10;;;12.40;;
61756;SDS011;57225;61.460;24.060;2023-09-30T05:29:03;28.33;;;12.98;;
61756;SDS011;57225;61.460;24.060;2023-09-30T05:31:48;20.85;;;12.73;;
61756;SDS011;57225;61.460;24.060;2023-09-30T05:34:33;19.80;;;11.77;;
61756;SDS011;57225;61.460;24.060;2023-09-30T05:37:17;19.52;;;11.90;;
61756;SDS011;57225;61.460;24.060;2023-09-30T05:40:05;18.33;;;11.13;;
61756;SDS011;57225;61.460;24.060;2023-09-30T05:43:00;22.70;;;11.07;;
61756;SDS011;57225;61.460;24.060;2023-09-30T05:45:48;21.17;;;11.63;;
61756;SDS011;57225;61.460;24.060;2023-09-30T05:48:38;20.55;;;10.68;;
61756;SDS011;57225;61.460;24.060;2023-09-30T05:51:23;23.58;;;11.18;;
61756;SDS011;57225;61.460;24.060;2023-09-30T05:54:08;20.80;;;10.45;;
61756;SDS011;57225;61.460;24.060;2023-09-30T05:56:55;17.55;;;9.77;;
61756;SDS011;57225;61.460;24.060;2023-09-30T05:59:40;19.65;;;10.50;;
61756;SDS011;57225;61.460;24.060;2023-09-30T06:02:25;18.23;;;9.25;;
61756;SDS011;57225;61.460;24.060;2023-09-30T06:05:09;16.55;;;9.70;;
61756;SDS011;57225;61.460;24.060;2023-09-30T06:07:55;15.50;;;9.75;;
61756;SDS011;57225;61.460;24.060;2023-09-30T06:10:40;12.90;;;8.48;;
61756;SDS011;57225;61.460;24.060;2023-09-30T06:13:28;17.05;;;10.00;;
61756;SDS011;57225;61.460;24.060;2023-09-30T06:16:15;16.50;;;9.52;;
61756;SDS011;57225;61.460;24.060;2023-09-30T06:18:59;18.35;;;9.48;;
61756;SDS011;57225;61.460;24.060;2023-09-30T06:21:44;17.67;;;10.07;;
61756;SDS011;57225;61.460;24.060;2023-09-30T06:24:28;18.75;;;9.02;;
61756;SDS011;57225;61.460;24.060;2023-09-30T06:27:13;18.45;;;9.50;;
61756;SDS011;57225;61.460;24.060;2023-09-30T06:29:57;15.88;;;8.38;;
61756;SDS011;57225;61.460;24.060;2023-09-30T06:32:42;18.00;;;9.25;;
61756;SDS011;57225;61.460;24.060;2023-09-30T06:35:28;18.13;;;8.90;;
61756;SDS011;57225;61.460;24.060;2023-09-30T06:38:21;16.05;;;8.52;;
61756;SDS011;57225;61.460;24.060;2023-09-30T06:41:09;22.95;;;8.93;;
61756;SDS011;57225;61.460;24.060;2023-09-30T06:43:59;20.95;;;9.20;;
61756;SDS011;57225;61.460;24.060;2023-09-30T06:47:02;22.70;;;10.25;;
61756;SDS011;57225;61.460;24.060;2023-09-30T06:52:56;19.45;;;9.95;;
61756;SDS011;57225;61.460;24.060;2023-09-30T06:55:40;21.58;;;10.90;;
61756;SDS011;57225;61.460;24.060;2023-09-30T06:58:33;26.65;;;11.20;;
61756;SDS011;57225;61.460;24.060;2023-09-30T07:03:53;27.05;;;12.10;;
61756;SDS011;57225;61.460;24.060;2023-09-30T07:06:40;29.33;;;12.65;;
61756;SDS011;57225;61.460;24.060;2023-09-30T07:09:27;23.00;;;11.48;;
61756;SDS011;57225;61.460;24.060;2023-09-30T07:12:12;30.02;;;13.52;;
61756;SDS011;57225;61.460;24.060;2023-09-30T07:14:58;22.67;;;12.23;;
61756;SDS011;57225;61.460;24.060;2023-09-30T07:17:46;29.70;;;8.02;;
61756;SDS011;57225;61.460;24.060;2023-09-30T07:20:31;13.88;;;5.00;;
61756;SDS011;57225;61.460;24.060;2023-09-30T07:23:19;7.28;;;2.50;;
61756;SDS011;57225;61.460;24.060;2023-09-30T07:26:06;4.10;;;1.92;;
61756;SDS011;57225;61.460;24.060;2023-09-30T07:29:00;7.45;;;2.13;;
61756;SDS011;57225;61.460;24.060;2023-09-30T07:31:48;4.40;;;1.50;;
61756;SDS011;57225;61.460;24.060;2023-09-30T07:34:37;2.35;;;1.30;;
61756;SDS011;57225;61.460;24.060;2023-09-30T07:37:31;9.48;;;1.85;;
61756;SDS011;57225;61.460;24.060;2023-09-30T07:40:16;1.60;;;1.10;;
61756;SDS011;57225;61.460;24.060;2023-09-30T07:43:05;3.50;;;1.25;;
61756;SDS011;57225;61.460;24.060;2023-09-30T07:46:04;3.20;;;1.10;;
61756;SDS011;57225;61.460;24.060;2023-09-30T07:48:53;5.50;;;1.30;;
61756;SDS011;57225;61.460;24.060;2023-09-30T07:51:38;5.80;;;1.33;;
61756;SDS011;57225;61.460;24.060;2023-09-30T07:54:25;3.05;;;1.30;;
61756;SDS011;57225;61.460;24.060;2023-09-30T07:57:30;2.90;;;1.15;;
61756;SDS011;57225;61.460;24.060;2023-09-30T08:00:31;5.07;;;1.30;;
61756;SDS011;57225;61.460;24.060;2023-09-30T08:03:17;2.33;;;1.00;;
61756;SDS011;57225;61.460;24.060;2023-09-30T08:06:03;2.95;;;1.45;;
61756;SDS011;57225;61.460;24.060;2023-09-30T08:08:47;3.42;;;1.35;;
61756;SDS011;57225;61.460;24.060;2023-09-30T08:11:32;5.72;;;1.48;;
61756;SDS011;57225;61.460;24.060;2023-09-30T08:14:20;7.18;;;1.70;;
61756;SDS011;57225;61.460;24.060;2023-09-30T08:17:04;3.42;;;1.23;;
61756;SDS011;57225;61.460;24.060;2023-09-30T08:19:49;4.35;;;1.40;;
61756;SDS011;57225;61.460;24.060;2023-09-30T08:22:33;2.10;;;1.30;;
61756;SDS011;57225;61.460;24.060;2023-09-30T08:25:18;3.47;;;1.40;;
61756;SDS011;57225;61.460;24.060;2023-09-30T08:28:02;2.40;;;1.45;;
61756;SDS011;57225;61.460;24.060;2023-09-30T08:30:53;2.03;;;1.30;;
61756;SDS011;57225;61.460;24.060;2023-09-30T08:33:45;2.65;;;1.30;;
61756;SDS011;57225;61.460;24.060;2023-09-30T08:36:30;4.28;;;1.30;;
61756;SDS011;57225;61.460;24.060;2023-09-30T08:39:37;3.92;;;1.23;;
61756;SDS011;57225;61.460;24.060;2023-09-30T08:42:22;1.60;;;1.10;;
61756;SDS011;57225;61.460;24.060;2023-09-30T08:45:09;2.13;;;1.00;;
61756;SDS011;57225;61.460;24.060;2023-09-30T08:47:58;2.55;;;1.10;;
61756;SDS011;57225;61.460;24.060;2023-09-30T08:50:48;2.10;;;1.25;;
61756;SDS011;57225;61.460;24.060;2023-09-30T08:53:34;2.83;;;1.15;;
61756;SDS011;57225;61.460;24.060;2023-09-30T08:56:20;2.08;;;1.10;;
61756;SDS011;57225;61.460;24.060;2023-09-30T08:59:12;2.88;;;1.35;;
61756;SDS011;57225;61.460;24.060;2023-09-30T09:01:57;0.75;;;0.70;;
61756;SDS011;57225;61.460;24.060;2023-09-30T09:04:42;1.85;;;1.20;;
61756;SDS011;57225;61.460;24.060;2023-09-30T09:07:36;1.48;;;1.00;;
61756;SDS011;57225;61.460;24.060;2023-09-30T09:10:20;5.15;;;1.10;;
61756;SDS011;57225;61.460;24.060;2023-09-30T09:13:05;1.67;;;1.05;;
61756;SDS011;57225;61.460;24.060;2023-09-30T09:15:49;1.48;;;0.88;;
61756;SDS011;57225;61.460;24.060;2023-09-30T09:18:34;2.97;;;0.80;;
61756;SDS011;57225;61.460;24.060;2023-09-30T09:21:20;3.33;;;1.10;;
61756;SDS011;57225;61.460;24.060;2023-09-30T09:24:09;1.23;;;0.80;;
61756;SDS011;57225;61.460;24.060;2023-09-30T09:27:13;1.70;;;1.00;;
61756;SDS011;57225;61.460;24.060;2023-09-30T09:30:23;2.67;;;1.15;;
61756;SDS011;57225;61.460;24.060;2023-09-30T09:33:06;2.22;;;0.50;;
61756;SDS011;57225;61.460;24.060;2023-09-30T09:35:51;2.00;;;0.70;;
61756;SDS011;57225;61.460;24.060;2023-09-30T09:38:43;1.65;;;0.90;;
61756;SDS011;57225;61.460;24.060;2023-09-30T09:41:31;4.00;;;0.95;;
61756;SDS011;57225;61.460;24.060;2023-09-30T09:44:28;4.03;;;1.23;;
61756;SDS011;57225;61.460;24.060;2023-09-30T09:47:13;6.07;;;1.50;;
61756;SDS011;57225;61.460;24.060;2023-09-30T09:49:58;6.00;;;1.60;;
61756;SDS011;57225;61.460;24.060;2023-09-30T09:52:43;4.90;;;2.03;;
61756;SDS011;57225;61.460;24.060;2023-09-30T09:55:31;6.18;;;3.05;;
61756;SDS011;57225;61.460;24.060;2023-09-30T09:58:17;16.60;;;3.80;;
61756;SDS011;57225;61.460;24.060;2023-09-30T10:01:06;14.23;;;4.00;;
61756;SDS011;57225;61.460;24.060;2023-09-30T10:03:52;14.02;;;4.57;;
61756;SDS011;57225;61.460;24.060;2023-09-30T10:06:36;11.07;;;4.03;;
61756;SDS011;57225;61.460;24.060;2023-09-30T10:09:23;11.68;;;4.45;;
61756;SDS011;57225;61.460;24.060;2023-09-30T10:12:08;10.13;;;4.13;;
61756;SDS011;57225;61.460;24.060;2023-09-30T10:14:54;11.10;;;3.97;;
61756;SDS011;57225;61.460;24.060;2023-09-30T10:20:42;12.40;;;4.05;;
61756;SDS011;57225;61.460;24.060;2023-09-30T10:23:31;16.77;;;4.57;;
61756;SDS011;57225;61.460;24.060;2023-09-30T10:26:17;10.77;;;4.32;;
61756;SDS011;57225;61.460;24.060;2023-09-30T10:29:08;11.95;;;4.18;;
61756;SDS011;57225;61.460;24.060;2023-09-30T10:32:12;10.63;;;4.20;;
61756;SDS011;57225;61.460;24.060;2023-09-30T10:34:58;13.68;;;4.20;;
61756;SDS011;57225;61.460;24.060;2023-09-30T10:37:43;11.65;;;4.10;;
61756;SDS011;57225;61.460;24.060;2023-09-30T10:40:29;15.00;;;4.70;;
61756;SDS011;57225;61.460;24.060;2023-09-30T10:49:16;14.00;;;4.15;;
61756;SDS011;57225;61.460;24.060;2023-09-30T10:52:22;13.68;;;4.60;;
61756;SDS011;57225;61.460;24.060;2023-09-30T10:55:08;14.38;;;4.32;;
61756;SDS011;57225;61.460;24.060;2023-09-30T10:57:53;19.67;;;3.95;;
61756;SDS011;57225;61.460;24.060;2023-09-30T11:00:38;14.30;;;3.97;;
61756;SDS011;57225;61.460;24.060;2023-09-30T11:03:44;12.65;;;4.40;;
61756;SDS011;57225;61.460;24.060;2023-09-30T11:06:31;12.35;;;4.10;;
61756;SDS011;57225;61.460;24.060;2023-09-30T11:09:16;11.52;;;4.03;;
61756;SDS011;57225;61.460;24.060;2023-09-30T11:12:12;10.77;;;3.95;;
61756;SDS011;57225;61.460;24.060;2023-09-30T11:15:05;11.95;;;4.05;;
61756;SDS011;57225;61.460;24.060;2023-09-30T11:17:53;11.35;;;4.00;;
61756;SDS011;57225;61.460;24.060;2023-09-30T11:20:51;11.15;;;3.33;;
61756;SDS011;57225;61.460;24.060;2023-09-30T11:23:54;8.80;;;3.53;;
61756;SDS011;57225;61.460;24.060;2023-09-30T11:26:38;11.00;;;3.60;;
61756;SDS011;57225;61.460;24.060;2023-09-30T11:29:37;8.23;;;3.78;;
61756;SDS011;57225;61.460;24.060;2023-09-30T11:32:31;13.75;;;4.05;;
61756;SDS011;57225;61.460;24.060;2023-09-30T11:35:23;13.50;;;3.50;;
61756;SDS011;57225;61.460;24.060;2023-09-30T11:38:08;10.32;;;3.75;;
61756;SDS011;57225;61.460;24.060;2023-09-30T11:41:02;9.68;;;3.88;;
61756;SDS011;57225;61.460;24.060;2023-09-30T11:44:00;7.40;;;2.72;;
61756;SDS011;57225;61.460;24.060;2023-09-30T11:47:10;12.85;;;3.08;;
61756;SDS011;57225;61.460;24.060;2023-09-30T11:49:55;7.43;;;2.78;;
61756;SDS011;57225;61.460;24.060;2023-09-30T11:52:43;9.05;;;2.90;;
61756;SDS011;57225;61.460;24.060;2023-09-30T11:55:30;8.48;;;2.80;;
61756;SDS011;57225;61.460;24.060;2023-09-30T11:58:14;10.07;;;2.95;;
61756;SDS011;57225;61.460;24.060;2023-09-30T12:01:03;9.30;;;2.53;;
61756;SDS011;57225;61.460;24.060;2023-09-30T12:03:51;11.07;;;3.08;;
61756;SDS011;57225;61.460;24.060;2023-09-30T12:06:35;12.57;;;3.38;;
61756;SDS011;57225;61.460;24.060;2023-09-30T12:09:23;7.78;;;3.25;;
61756;SDS011;57225;61.460;24.060;2023-09-30T12:12:10;8.90;;;3.25;;
61756;SDS011;57225;61.460;24.060;2023-09-30T12:14:56;12.13;;;3.55;;
61756;SDS011;57225;61.460;24.060;2023-09-30T12:17:43;8.25;;;2.90;;
61756;SDS011;57225;61.460;24.060;2023-09-30T12:20:28;9.02;;;3.03;;
61756;SDS011;57225;61.460;24.060;2023-09-30T12:23:12;8.25;;;3.05;;
61756;SDS011;57225;61.460;24.060;2023-09-30T12:25:57;13.32;;;3.28;;
61756;SDS011;57225;61.460;24.060;2023-09-30T12:28:41;7.40;;;3.00;;
61756;SDS011;57225;61.460;24.060;2023-09-30T12:31:26;15.05;;;3.40;;
61756;SDS011;57225;61.460;24.060;2023-09-30T12:34:10;10.25;;;3.08;;
61756;SDS011;57225;61.460;24.060;2023-09-30T12:36:56;10.73;;;3.10;;
61756;SDS011;57225;61.460;24.060;2023-09-30T12:39:40;9.80;;;3.45;;
61756;SDS011;57225;61.460;24.060;2023-09-30T12:42:25;12.82;;;3.47;;
61756;SDS011;57225;61.460;24.060;2023-09-30T12:45:09;12.73;;;3.58;;
61756;SDS011;57225;61.460;24.060;2023-09-30T12:47:54;14.57;;;3.90;;
61756;SDS011;57225;61.460;24.060;2023-09-30T12:50:44;14.68;;;3.25;;
61756;SDS011;57225;61.460;24.060;2023-09-30T12:53:28;10.43;;;3.50;;
61756;SDS011;57225;61.460;24.060;2023-09-30T12:56:13;8.50;;;3.03;;
61756;SDS011;57225;61.460;24.060;2023-09-30T12:58:57;10.73;;;3.20;;
61756;SDS011;57225;61.460;24.060;2023-09-30T13:01:42;9.38;;;3.45;;
61756;SDS011;57225;61.460;24.060;2023-09-30T13:04:27;8.65;;;3.10;;
61756;SDS011;57225;61.460;24.060;2023-09-30T13:07:12;12.40;;;3.90;;
61756;SDS011;57225;61.460;24.060;2023-09-30T13:09:56;10.65;;;2.97;;
61756;SDS011;57225;61.460;24.060;2023-09-30T13:12:41;8.82;;;2.85;;
61756;SDS011;57225;61.460;24.060;2023-09-30T13:15:25;9.60;;;3.58;;
61756;SDS011;57225;61.460;24.060;2023-09-30T13:18:09;12.60;;;3.00;;
61756;SDS011;57225;61.460;24.060;2023-09-30T13:20:54;8.82;;;3.30;;
61756;SDS011;57225;61.460;24.060;2023-09-30T13:23:38;9.70;;;3.38;;
61756;SDS011;57225;61.460;24.060;2023-09-30T13:26:23;10.13;;;3.10;;
61756;SDS011;57225;61.460;24.060;2023-09-30T13:29:07;10.05;;;3.28;;
61756;SDS011;57225;61.460;24.060;2023-09-30T13:32:10;10.65;;;3.17;;
61756;SDS011;57225;61.460;24.060;2023-09-30T13:34:54;10.38;;;3.33;;
61756;SDS011;57225;61.460;24.060;2023-09-30T13:37:39;10.57;;;2.90;;
61756;SDS011;57225;61.460;24.060;2023-09-30T13:40:23;11.40;;;3.30;;
61756;SDS011;57225;61.460;24.060;2023-09-30T13:43:08;10.50;;;3.25;;
61756;SDS011;57225;61.460;24.060;2023-09-30T13:45:53;14.95;;;3.65;;
61756;SDS011;57225;61.460;24.060;2023-09-30T13:48:38;12.35;;;3.30;;
61756;SDS011;57225;61.460;24.060;2023-09-30T13:51:22;11.48;;;3.25;;
61756;SDS011;57225;61.460;24.060;2023-09-30T13:54:07;10.60;;;3.60;;
61756;SDS011;57225;61.460;24.060;2023-09-30T13:56:51;11.85;;;3.38;;
61756;SDS011;57225;61.460;24.060;2023-09-30T13:59:36;10.90;;;3.08;;
61756;SDS011;57225;61.460;24.060;2023-09-30T14:02:20;9.35;;;3.20;;
61756;SDS011;57225;61.460;24.060;2023-09-30T14:05:05;8.65;;;2.92;;
61756;SDS011;57225;61.460;24.060;2023-09-30T14:07:53;8.40;;;3.10;;
61756;SDS011;57225;61.460;24.060;2023-09-30T14:10:37;7.70;;;3.10;;
61756;SDS011;57225;61.460;24.060;2023-09-30T14:13:22;11.73;;;4.15;;
61756;SDS011;57225;61.460;24.060;2023-09-30T14:16:07;9.57;;;4.20;;
61756;SDS011;57225;61.460;24.060;2023-09-30T14:18:54;10.65;;;3.60;;
61756;SDS011;57225;61.460;24.060;2023-09-30T14:21:42;8.10;;;2.95;;
61756;SDS011;57225;61.460;24.060;2023-09-30T14:24:26;7.03;;;3.03;;
61756;SDS011;57225;61.460;24.060;2023-09-30T14:27:11;7.95;;;3.03;;
61756;SDS011;57225;61.460;24.060;2023-09-30T14:29:58;13.85;;;2.95;;
61756;SDS011;57225;61.460;24.060;2023-09-30T14:32:45;13.20;;;2.90;;
61756;SDS011;57225;61.460;24.060;2023-09-30T14:35:36;10.07;;;2.70;;
61756;SDS011;57225;61.460;24.060;2023-09-30T14:38:44;10.00;;;2.90;;
61756;SDS011;57225;61.460;24.060;2023-09-30T14:41:30;10.65;;;2.72;;
61756;SDS011;57225;61.460;24.060;2023-09-30T14:44:17;9.80;;;2.83;;
61756;SDS011;57225;61.460;24.060;2023-09-30T14:47:06;9.30;;;2.65;;
61756;SDS011;57225;61.460;24.060;2023-09-30T14:49:53;13.43;;;3.03;;
61756;SDS011;57225;61.460;24.060;2023-09-30T14:52:40;7.07;;;2.58;;
61756;SDS011;57225;61.460;24.060;2023-09-30T14:55:26;9.93;;;2.80;;
61756;SDS011;57225;61.460;24.060;2023-09-30T14:58:13;7.50;;;2.72;;
61756;SDS011;57225;61.460;24.060;2023-09-30T15:00:59;8.18;;;2.97;;
61756;SDS011;57225;61.460;24.060;2023-09-30T15:03:46;8.52;;;2.42;;
61756;SDS011;57225;61.460;24.060;2023-09-30T15:06:33;11.85;;;3.35;;
61756;SDS011;57225;61.460;24.060;2023-09-30T15:09:19;9.70;;;2.90;;
61756;SDS011;57225;61.460;24.060;2023-09-30T15:12:06;13.98;;;3.83;;
61756;SDS011;57225;61.460;24.060;2023-09-30T15:14:54;15.55;;;4.10;;
61756;SDS011;57225;61.460;24.060;2023-09-30T15:17:40;9.57;;;2.97;;
61756;SDS011;57225;61.460;24.060;2023-09-30T15:20:25;14.27;;;3.50;;
61756;SDS011;57225;61.460;24.060;2023-09-30T15:23:11;13.38;;;3.75;;
61756;SDS011;57225;61.460;24.060;2023-09-30T15:25:56;11.30;;;3.70;;
61756;SDS011;57225;61.460;24.060;2023-09-30T15:28:40;10.40;;;3.70;;
61756;SDS011;57225;61.460;24.060;2023-09-30T15:31:28;11.38;;;3.17;;
61756;SDS011;57225;61.460;24.060;2023-09-30T15:34:13;14.82;;;3.10;;
61756;SDS011;57225;61.460;24.060;2023-09-30T15:36:58;8.10;;;3.38;;
61756;SDS011;57225;61.460;24.060;2023-09-30T15:39:42;11.10;;;3.20;;
61756;SDS011;57225;61.460;24.060;2023-09-30T15:42:27;6.03;;;2.95;;
61756;SDS011;57225;61.460;24.060;2023-09-30T15:45:12;11.30;;;3.20;;
61756;SDS011;57225;61.460;24.060;2023-09-30T15:47:56;7.60;;;2.80;;
61756;SDS011;57225;61.460;24.060;2023-09-30T15:50:41;10.10;;;2.90;;
61756;SDS011;57225;61.460;24.060;2023-09-30T15:53:26;12.57;;;3.25;;
61756;SDS011;57225;61.460;24.060;2023-09-30T15:56:12;10.07;;;3.38;;
61756;SDS011;57225;61.460;24.060;2023-09-30T15:58:56;6.93;;;2.58;;
61756;SDS011;57225;61.460;24.060;2023-09-30T16:01:41;10.88;;;3.20;;
61756;SDS011;57225;61.460;24.060;2023-09-30T16:04:28;10.18;;;2.78;;
61756;SDS011;57225;61.460;24.060;2023-09-30T16:07:13;8.23;;;3.25;;
61756;SDS011;57225;61.460;24.060;2023-09-30T16:09:58;6.13;;;2.75;;
61756;SDS011;57225;61.460;24.060;2023-09-30T16:12:42;13.82;;;3.40;;
61756;SDS011;57225;61.460;24.060;2023-09-30T16:15:27;8.50;;;2.85;;
61756;SDS011;57225;61.460;24.060;2023-09-30T16:18:12;7.68;;;2.88;;
61756;SDS011;57225;61.460;24.060;2023-09-30T16:20:56;11.70;;;2.92;;
61756;SDS011;57225;61.460;24.060;2023-09-30T16:23:41;12.82;;;3.20;;
61756;SDS011;57225;61.460;24.060;2023-09-30T16:29:55;8.80;;;3.03;;
61756;SDS011;57225;61.460;24.060;2023-09-30T16:32:40;12.48;;;4.07;;
61756;SDS011;57225;61.460;24.060;2023-09-30T16:35:24;16.38;;;3.95;;
61756;SDS011;57225;61.460;24.060;2023-09-30T16:38:09;14.55;;;3.78;;
61756;SDS011;57225;61.460;24.060;2023-09-30T16:40:53;10.27;;;3.50;;